Time;durP1;ratioP1;P1;durP2;ratioP2;P2;SDS_P1;SDS_P2;PMS_P1;PMS_P2;Temp;Humidity;BMP_temperature;BMP_pressure;BME280_temperature;BME280_humidity;BME280_pressure;Samples;Min_cycle;Max_cycle;Signal;HPM_P1;HPM_P2
2022/03/10 00:01:37;;;;;;;12.02;3.95;;;9.10;78.10;;;;;;4805426;29;20063;-71
2022/03/10 00:04:04;;;;;;;15.93;3.85;;;9.20;78.20;;;;;;4806120;29;20043;-71
2022/03/10 00:06:32;;;;;;;14.95;3.72;;;9.10;78.20;;;;;;4805423;29;20062;-71
2022/03/10 00:08:59;;;;;;;14.15;3.88;;;9.10;78.20;;;;;;4805388;29;20051;-71
2022/03/10 00:11:27;;;;;;;6.43;3.47;;;9.10;78.20;;;;;;4796273;29;20529;-72
2022/03/10 00:13:55;;;;;;;15.68;3.60;;;9.10;78.20;;;;;;4804452;29;20054;-72
2022/03/10 00:16:22;;;;;;;12.95;3.58;;;9.10;78.20;;;;;;4805607;29;20051;-70
2022/03/10 00:18:50;;;;;;;14.52;4.00;;;9.10;78.30;;;;;;4796575;29;20050;-73
2022/03/10 00:21:19;;;;;;;9.77;3.67;;;9.20;78.30;;;;;;4805647;29;20054;-71
2022/03/10 00:23:47;;;;;;;10.95;3.40;;;9.20;78.20;;;;;;4805482;29;20042;-70
2022/03/10 00:26:15;;;;;;;7.38;3.05;;;9.20;78.30;;;;;;4803927;29;20062;-71
2022/03/10 00:28:47;;;;;;;11.67;3.43;;;9.10;78.30;;;;;;4804047;29;20062;-72
2022/03/10 00:31:15;;;;;;;11.25;3.97;;;9.20;78.30;;;;;;4803366;29;20313;-71
2022/03/10 00:33:43;;;;;;;11.30;3.55;;;9.10;78.30;;;;;;4818882;29;20054;-72
2022/03/10 00:36:10;;;;;;;10.75;3.45;;;9.20;78.40;;;;;;4804969;29;20051;-71
2022/03/10 00:38:38;;;;;;;9.60;3.42;;;9.10;78.50;;;;;;4804278;29;20051;-71
2022/03/10 00:41:08;;;;;;;13.05;3.22;;;9.20;78.50;;;;;;4805370;29;20066;-71
2022/03/10 00:43:36;;;;;;;11.55;3.30;;;9.10;78.50;;;;;;4804522;29;20054;-71
2022/03/10 00:46:03;;;;;;;8.73;2.90;;;9.20;78.60;;;;;;4804193;29;20051;-71
2022/03/10 00:48:31;;;;;;;5.40;3.45;;;9.20;78.60;;;;;;4803064;29;20047;-71
2022/03/10 00:50:59;;;;;;;8.38;3.25;;;9.20;78.70;;;;;;4803291;29;20177;-71
2022/03/10 00:53:27;;;;;;;6.85;2.80;;;9.20;78.70;;;;;;4804267;29;20046;-71
2022/03/10 00:55:55;;;;;;;10.82;3.10;;;9.20;79.00;;;;;;4803435;29;20082;-72
2022/03/10 00:58:22;;;;;;;7.53;2.70;;;9.20;79.10;;;;;;4804440;29;20059;-71
2022/03/10 01:00:53;;;;;;;10.20;3.03;;;9.20;79.20;;;;;;4803972;29;20054;-72
2022/03/10 01:03:37;;;;;;;9.90;3.22;;;9.20;79.10;;;;;;5104130;27;20113;-70
2022/03/10 01:06:05;;;;;;;13.88;3.10;;;9.30;79.30;;;;;;5082450;28;20044;-69
2022/03/10 01:08:33;;;;;;;9.95;3.17;;;9.20;79.40;;;;;;5101747;28;20055;-70
2022/03/10 01:11:00;;;;;;;13.18;3.55;;;9.20;79.70;;;;;;5077360;28;20048;-70
2022/03/10 01:13:28;;;;;;;11.93;3.40;;;9.10;79.80;;;;;;5077642;28;20060;-70
2022/03/10 01:15:56;;;;;;;11.15;3.30;;;9.10;80.10;;;;;;5068891;28;20514;-71
2022/03/10 01:18:23;;;;;;;10.70;3.35;;;9.10;80.20;;;;;;5084960;28;20063;-70
2022/03/10 01:20:51;;;;;;;11.32;3.28;;;9.00;80.40;;;;;;5076844;28;20044;-70
2022/03/10 01:23:19;;;;;;;12.68;3.60;;;9.00;80.50;;;;;;5071879;28;20049;-70
2022/03/10 01:25:50;;;;;;;10.70;3.70;;;9.10;80.80;;;;;;5079713;28;20045;-70
2022/03/10 01:28:18;;;;;;;13.85;3.47;;;9.00;81.10;;;;;;5066682;28;20045;-70
2022/03/10 01:30:46;;;;;;;10.18;3.47;;;9.10;81.30;;;;;;5060221;28;20049;-70
2022/03/10 01:33:13;;;;;;;12.25;3.42;;;9.00;81.30;;;;;;5047812;28;20057;-69
2022/03/10 01:35:41;;;;;;;7.85;3.30;;;9.00;81.50;;;;;;5043927;28;20044;-71
2022/03/10 01:38:09;;;;;;;13.02;3.83;;;8.90;81.60;;;;;;5052378;28;20517;-70
2022/03/10 01:40:36;;;;;;;10.23;2.95;;;8.80;81.60;;;;;;5066222;28;20045;-71
2022/03/10 01:43:04;;;;;;;6.50;3.22;;;8.80;81.70;;;;;;5062558;28;20049;-70
2022/03/10 01:45:32;;;;;;;9.95;3.40;;;8.80;81.80;;;;;;5066843;28;20045;-70
2022/03/10 01:47:59;;;;;;;9.40;3.13;;;8.80;81.70;;;;;;5064007;28;20059;-71
2022/03/10 01:50:27;;;;;;;11.18;3.30;;;8.80;81.70;;;;;;5051512;28;20065;-70
2022/03/10 01:52:55;;;;;;;16.98;3.67;;;8.80;81.70;;;;;;5066653;28;20045;-70
2022/03/10 01:55:23;;;;;;;13.35;3.58;;;8.70;81.80;;;;;;5072255;28;20048;-70
2022/03/10 01:57:53;;;;;;;12.00;4.28;;;8.60;81.80;;;;;;5088090;28;20401;-71
2022/03/10 02:00:21;;;;;;;8.93;3.85;;;8.60;82.00;;;;;;5071330;28;20454;-71
2022/03/10 02:02:49;;;;;;;11.50;4.07;;;8.50;81.90;;;;;;5081840;28;20063;-69
2022/03/10 02:05:17;;;;;;;6.57;3.33;;;8.50;82.10;;;;;;5088617;28;20419;-70
2022/03/10 02:10:32;;;;;;;9.23;3.15;;;8.50;82.30;;;;;;5069366;28;20131;-69
2022/03/10 02:12:59;;;;;;;6.50;2.92;;;8.60;82.10;;;;;;5058323;28;20429;-70
2022/03/10 02:18:17;;;;;;;10.48;3.05;;;8.50;82.00;;;;;;5063089;28;20067;-70
2022/03/10 02:20:45;;;;;;;13.75;3.13;;;8.70;81.90;;;;;;5054254;28;20040;-71
2022/03/10 02:23:15;;;;;;;10.25;2.88;;;8.70;81.90;;;;;;5072703;28;20033;-71
2022/03/10 02:25:43;;;;;;;8.23;2.75;;;8.80;81.80;;;;;;5058836;28;20402;-70
2022/03/10 02:28:10;;;;;;;11.30;3.22;;;8.70;81.70;;;;;;5058787;28;20049;-71
2022/03/10 02:30:38;;;;;;;12.88;2.72;;;8.80;81.70;;;;;;5056121;28;20163;-71
2022/03/10 02:33:06;;;;;;;7.75;2.85;;;8.80;81.60;;;;;;5036873;28;20048;-71
2022/03/10 02:35:34;;;;;;;8.60;2.88;;;8.90;81.60;;;;;;5047580;28;20041;-70
2022/03/10 02:38:02;;;;;;;8.90;3.05;;;9.00;81.50;;;;;;5065289;28;20059;-70
2022/03/10 02:40:30;;;;;;;8.88;3.00;;;9.00;81.30;;;;;;5055017;28;20045;-69
2022/03/10 02:42:58;;;;;;;6.00;2.58;;;9.10;81.20;;;;;;5038615;28;20375;-70
2022/03/10 02:45:26;;;;;;;8.35;3.35;;;9.10;81.20;;;;;;5060359;28;20405;-70
2022/03/10 02:47:53;;;;;;;11.68;2.65;;;9.10;81.00;;;;;;5066035;28;20451;-70
2022/03/10 02:50:23;;;;;;;9.07;3.25;;;9.20;80.90;;;;;;5057646;28;20040;-71
2022/03/10 02:52:51;;;;;;;11.63;3.38;;;9.20;80.80;;;;;;5065429;28;20048;-70
2022/03/10 02:55:18;;;;;;;7.22;3.08;;;9.10;80.70;;;;;;5047194;28;20052;-70
2022/03/10 02:57:46;;;;;;;11.55;3.13;;;9.00;80.80;;;;;;5068065;28;20040;-70
2022/03/10 03:00:14;;;;;;;6.10;2.55;;;8.90;80.90;;;;;;5064037;28;20526;-70
2022/03/10 03:02:42;;;;;;;7.95;3.00;;;8.80;81.00;;;;;;5056132;28;20061;-70
2022/03/10 03:05:15;;;;;;;7.28;2.75;;;8.90;81.10;;;;;;5040861;28;20045;-70
2022/03/10 03:07:44;;;;;;;6.53;2.53;;;8.90;81.00;;;;;;5068363;28;20378;-69
2022/03/10 03:10:12;;;;;;;12.82;2.75;;;8.90;81.00;;;;;;5068440;28;20037;-69
2022/03/10 03:12:48;;;;;;;9.43;2.47;;;8.90;80.90;;;;;;5062795;28;20068;-70
2022/03/10 03:15:16;;;;;;;7.13;2.65;;;8.90;80.80;;;;;;5044984;28;20397;-70
2022/03/10 03:17:47;;;;;;;7.93;2.75;;;8.90;80.80;;;;;;5067008;28;20048;-70
2022/03/10 03:20:15;;;;;;;7.90;2.47;;;8.90;80.80;;;;;;5057524;28;20060;-70
2022/03/10 03:22:44;;;;;;;6.80;2.53;;;8.90;80.70;;;;;;5067448;28;20052;-70
2022/03/10 03:25:17;;;;;;;10.00;2.40;;;8.80;80.80;;;;;;5061417;28;20479;-70
2022/03/10 03:27:46;;;;;;;8.55;2.72;;;8.80;80.90;;;;;;5057886;28;20406;-70
2022/03/10 03:30:14;;;;;;;5.78;2.72;;;8.70;80.90;;;;;;5065327;28;20040;-70
2022/03/10 03:32:43;;;;;;;7.30;3.05;;;8.70;80.90;;;;;;5048005;28;20037;-70
2022/03/10 03:35:10;;;;;;;7.35;2.80;;;8.60;81.00;;;;;;5065970;28;20398;-70
2022/03/10 03:37:38;;;;;;;11.00;3.05;;;8.50;81.10;;;;;;5068781;28;20045;-70
2022/03/10 03:40:07;;;;;;;8.73;3.30;;;8.30;81.30;;;;;;5062709;28;20401;-70
2022/03/10 03:42:35;;;;;;;10.23;3.20;;;8.30;81.50;;;;;;5067540;28;20053;-70
2022/03/10 03:45:04;;;;;;;10.55;2.67;;;8.20;81.70;;;;;;5063754;28;20045;-70
2022/03/10 03:47:32;;;;;;;8.30;2.88;;;8.10;81.90;;;;;;5055946;28;20375;-70
2022/03/10 03:50:00;;;;;;;9.63;2.60;;;8.20;82.00;;;;;;5056252;28;20048;-70
2022/03/10 03:52:28;;;;;;;8.93;2.92;;;8.20;82.00;;;;;;5064176;28;20401;-70
2022/03/10 03:54:56;;;;;;;8.40;2.88;;;8.30;81.90;;;;;;5062831;28;20052;-70
2022/03/10 03:57:23;;;;;;;9.48;2.85;;;8.30;81.90;;;;;;5069491;28;20036;-70
2022/03/10 03:59:51;;;;;;;10.38;2.75;;;8.40;81.80;;;;;;5061212;28;20048;-70
2022/03/10 04:02:19;;;;;;;9.80;3.10;;;8.40;81.70;;;;;;5063226;28;20041;-71
2022/03/10 04:04:46;;;;;;;10.85;3.30;;;8.40;81.70;;;;;;5069386;28;20041;-71
2022/03/10 04:07:15;;;;;;;10.23;3.58;;;8.50;81.60;;;;;;5055680;28;20045;-71
2022/03/10 04:09:43;;;;;;;6.78;2.60;;;8.50;81.60;;;;;;5065371;28;20071;-70
2022/03/10 04:12:11;;;;;;;7.25;3.30;;;8.50;81.60;;;;;;5065696;28;20059;-71
2022/03/10 04:14:38;;;;;;;12.13;3.03;;;8.50;81.50;;;;;;5039472;28;20049;-71
2022/03/10 04:17:06;;;;;;;9.38;3.10;;;8.50;81.60;;;;;;5044838;28;20092;-71
2022/03/10 04:19:34;;;;;;;7.72;3.05;;;8.50;81.60;;;;;;5046023;28;20052;-71
2022/03/10 04:22:03;;;;;;;13.95;3.30;;;8.50;81.60;;;;;;5057294;28;20410;-71
2022/03/10 04:24:31;;;;;;;10.98;2.97;;;8.50;81.70;;;;;;5062222;28;20040;-71
2022/03/10 04:26:58;;;;;;;16.40;3.22;;;8.50;81.60;;;;;;5062852;28;20049;-71
2022/03/10 04:29:26;;;;;;;7.93;2.85;;;8.60;81.60;;;;;;5067111;28;20052;-71
2022/03/10 04:31:53;;;;;;;12.60;3.47;;;8.60;81.60;;;;;;5062629;28;20049;-71
2022/03/10 04:34:22;;;;;;;7.40;3.08;;;8.60;81.60;;;;;;5066868;28;20048;-69
2022/03/10 04:36:49;;;;;;;11.18;3.55;;;8.60;81.50;;;;;;5063916;28;20059;-69
2022/03/10 04:39:17;;;;;;;11.25;3.22;;;8.60;81.50;;;;;;5065572;28;20067;-70
2022/03/10 04:41:44;;;;;;;9.60;3.33;;;8.60;81.40;;;;;;5063323;28;20040;-71
2022/03/10 04:44:12;;;;;;;10.32;3.35;;;8.60;81.40;;;;;;5057736;28;20502;-71
2022/03/10 04:46:39;;;;;;;10.23;3.53;;;8.60;81.40;;;;;;5067771;28;20037;-71
2022/03/10 04:49:08;;;;;;;10.32;3.58;;;8.60;81.40;;;;;;5061162;28;20048;-71
2022/03/10 04:51:36;;;;;;;10.93;3.53;;;8.60;81.40;;;;;;5054627;28;20044;-71
2022/03/10 04:54:04;;;;;;;9.93;3.33;;;8.60;81.40;;;;;;5063040;28;20125;-71
2022/03/10 04:56:33;;;;;;;7.63;3.42;;;8.60;81.40;;;;;;5054125;28;20159;-72
2022/03/10 04:59:00;;;;;;;10.25;3.45;;;8.70;81.40;;;;;;5053445;28;20049;-71
2022/03/10 05:01:29;;;;;;;11.65;3.63;;;8.70;81.40;;;;;;5053390;28;20041;-71
2022/03/10 05:03:58;;;;;;;11.05;3.55;;;8.70;81.40;;;;;;5052816;28;20037;-69
2022/03/10 05:06:27;;;;;;;13.45;3.90;;;8.70;81.30;;;;;;5051586;28;20048;-71
2022/03/10 05:08:54;;;;;;;9.43;4.13;;;8.70;81.30;;;;;;5067135;28;20051;-71
2022/03/10 05:11:22;;;;;;;14.68;3.35;;;8.70;81.30;;;;;;5064017;28;20048;-71
2022/03/10 05:13:55;;;;;;;8.43;3.75;;;8.60;81.30;;;;;;5040143;28;20047;-71
2022/03/10 05:16:22;;;;;;;12.73;3.33;;;8.60;81.40;;;;;;5053936;28;20052;-71
2022/03/10 05:18:50;;;;;;;12.68;3.42;;;8.50;81.40;;;;;;5056286;28;20044;-72
2022/03/10 05:21:18;;;;;;;12.00;3.88;;;8.50;81.50;;;;;;5065902;28;20040;-71
2022/03/10 05:23:46;;;;;;;10.50;3.75;;;8.40;81.60;;;;;;5056768;28;20045;-71
2022/03/10 05:26:13;;;;;;;13.68;3.75;;;8.40;81.70;;;;;;5058858;28;20040;-71
2022/03/10 05:28:41;;;;;;;11.90;3.42;;;8.40;81.80;;;;;;5063686;28;20529;-70
2022/03/10 05:31:09;;;;;;;10.10;3.38;;;8.40;81.80;;;;;;5056798;28;20049;-70
2022/03/10 05:33:39;;;;;;;12.45;3.70;;;8.50;81.80;;;;;;5045698;28;20516;-70
2022/03/10 05:36:07;;;;;;;9.52;3.38;;;8.60;81.70;;;;;;5056181;28;20048;-70
2022/03/10 05:38:34;;;;;;;10.55;4.03;;;8.60;81.60;;;;;;5061517;28;20489;-69
2022/03/10 05:41:03;;;;;;;11.13;3.78;;;8.70;81.50;;;;;;5080089;28;20048;-70
2022/03/10 05:43:32;;;;;;;7.43;3.22;;;8.70;81.40;;;;;;5089822;28;20048;-70
2022/03/10 05:45:59;;;;;;;10.82;3.70;;;8.80;81.30;;;;;;5081553;28;20435;-70
2022/03/10 05:48:30;;;;;;;9.85;3.95;;;8.80;81.20;;;;;;5053414;28;20499;-70
2022/03/10 05:50:58;;;;;;;12.32;3.63;;;8.80;81.20;;;;;;5068592;28;20052;-70
2022/03/10 05:53:26;;;;;;;10.43;3.58;;;8.80;81.10;;;;;;5054779;28;20071;-70
2022/03/10 05:55:54;;;;;;;8.88;3.30;;;8.80;81.10;;;;;;5063773;28;20052;-70
2022/03/10 05:58:21;;;;;;;13.07;3.88;;;8.80;81.00;;;;;;5068611;28;20044;-70
2022/03/10 06:00:49;;;;;;;8.43;3.15;;;8.80;81.00;;;;;;5064403;28;20488;-70
2022/03/10 06:03:19;;;;;;;11.93;3.70;;;8.80;80.90;;;;;;5074135;28;20051;-69
2022/03/10 06:05:48;;;;;;;9.88;3.45;;;8.80;80.90;;;;;;5056905;28;20052;-69
2022/03/10 06:08:16;;;;;;;8.43;3.70;;;8.80;80.90;;;;;;5067034;28;20060;-69
2022/03/10 06:10:44;;;;;;;11.00;3.58;;;8.80;80.80;;;;;;5062946;28;20058;-70
2022/03/10 06:13:11;;;;;;;9.73;3.80;;;8.80;80.80;;;;;;5057497;28;20049;-70
2022/03/10 06:15:39;;;;;;;11.68;3.92;;;8.80;80.80;;;;;;5068026;28;20052;-71
2022/03/10 06:18:08;;;;;;;9.82;3.83;;;8.80;80.70;;;;;;5054995;28;20052;-71
2022/03/10 06:20:35;;;;;;;4.38;3.03;;;8.80;80.70;;;;;;5056854;28;20052;-72
2022/03/10 06:23:03;;;;;;;5.85;2.90;;;8.90;80.70;;;;;;5062856;28;20041;-70
2022/03/10 06:25:31;;;;;;;9.38;3.38;;;8.90;80.60;;;;;;5061262;28;20045;-70
2022/03/10 06:27:58;;;;;;;9.85;3.75;;;8.90;80.60;;;;;;5056305;28;20060;-71
2022/03/10 06:30:26;;;;;;;8.45;3.55;;;8.90;80.60;;;;;;5058055;28;20041;-71
2022/03/10 06:32:54;;;;;;;9.45;3.35;;;8.90;80.60;;;;;;5043896;28;20404;-71
2022/03/10 06:35:22;;;;;;;6.90;3.25;;;8.90;80.60;;;;;;5065576;28;20384;-71
2022/03/10 06:37:49;;;;;;;8.43;3.80;;;8.90;80.60;;;;;;5055204;28;20379;-71
2022/03/10 06:40:17;;;;;;;7.20;3.95;;;8.80;80.60;;;;;;5059176;28;20513;-71
2022/03/10 06:42:45;;;;;;;11.05;3.90;;;8.80;80.60;;;;;;5081514;28;20052;-71
2022/03/10 06:45:14;;;;;;;12.25;3.53;;;8.80;80.60;;;;;;5079878;28;20040;-71
2022/03/10 06:47:42;;;;;;;8.07;3.97;;;8.80;80.70;;;;;;5062722;28;20421;-71
2022/03/10 06:50:10;;;;;;;7.32;3.88;;;8.80;80.70;;;;;;5065002;28;20060;-71
2022/03/10 06:52:37;;;;;;;6.78;3.53;;;8.80;80.70;;;;;;5069240;28;20048;-71
2022/03/10 06:55:06;;;;;;;9.52;3.97;;;8.80;80.70;;;;;;5040767;28;20636;-71
2022/03/10 06:57:33;;;;;;;7.97;3.72;;;8.90;80.70;;;;;;5067098;28;20052;-71
2022/03/10 07:00:01;;;;;;;10.65;3.60;;;8.90;80.70;;;;;;5075539;28;20404;-71
2022/03/10 07:02:29;;;;;;;8.02;4.05;;;9.00;80.60;;;;;;5056568;28;20045;-71
2022/03/10 07:04:57;;;;;;;9.10;3.30;;;8.90;80.60;;;;;;5062760;28;20049;-71
2022/03/10 07:07:25;;;;;;;9.70;3.78;;;9.00;80.50;;;;;;5056416;28;20045;-71
2022/03/10 07:09:52;;;;;;;8.95;3.83;;;9.00;80.50;;;;;;5066579;28;20438;-71
2022/03/10 07:12:20;;;;;;;7.03;3.50;;;9.00;80.50;;;;;;5061691;28;20037;-70
2022/03/10 07:14:48;;;;;;;8.93;3.47;;;9.00;80.50;;;;;;5062593;28;20047;-70
2022/03/10 07:17:16;;;;;;;12.32;3.95;;;9.00;80.40;;;;;;5037860;28;20052;-70
2022/03/10 07:19:45;;;;;;;11.32;3.80;;;9.00;80.40;;;;;;5047874;28;20049;-70
2022/03/10 07:22:19;;;;;;;12.05;3.97;;;8.90;80.50;;;;;;5044901;28;20052;-71
2022/03/10 07:24:47;;;;;;;7.82;3.50;;;9.00;80.50;;;;;;5046999;28;20045;-70
2022/03/10 07:27:15;;;;;;;7.15;3.80;;;9.00;80.50;;;;;;5061216;28;20041;-70
2022/03/10 07:29:43;;;;;;;12.18;4.45;;;9.00;80.40;;;;;;5064755;28;20040;-70
2022/03/10 07:32:11;;;;;;;8.23;3.67;;;9.00;80.40;;;;;;5042378;28;20040;-70
2022/03/10 07:34:39;;;;;;;9.13;3.47;;;9.10;80.40;;;;;;5059510;28;20057;-70
2022/03/10 07:37:06;;;;;;;6.30;3.42;;;9.10;80.40;;;;;;5068231;28;20036;-70
2022/03/10 07:39:34;;;;;;;9.48;3.50;;;9.20;80.30;;;;;;5057873;28;20524;-70
2022/03/10 07:42:02;;;;;;;9.00;3.60;;;9.30;80.30;;;;;;5062504;28;20036;-70
2022/03/10 07:44:29;;;;;;;9.55;3.85;;;9.20;80.20;;;;;;5059238;28;20052;-70
2022/03/10 07:46:57;;;;;;;8.00;3.92;;;9.30;80.10;;;;;;5053981;28;20056;-70
2022/03/10 07:49:24;;;;;;;7.60;4.22;;;9.30;80.00;;;;;;5062972;28;20037;-70
2022/03/10 07:51:52;;;;;;;8.23;4.25;;;9.30;80.00;;;;;;5068014;28;20060;-70
2022/03/10 07:54:20;;;;;;;11.98;4.25;;;9.30;79.90;;;;;;5042552;28;20056;-70
2022/03/10 07:56:48;;;;;;;8.68;4.05;;;9.30;79.90;;;;;;5064952;28;20045;-70
2022/03/10 07:59:15;;;;;;;7.82;4.22;;;9.40;79.90;;;;;;5053584;28;20059;-70
2022/03/10 08:01:43;;;;;;;10.63;4.13;;;9.30;79.80;;;;;;5048166;28;20173;-70
2022/03/10 08:04:11;;;;;;;5.68;3.95;;;9.40;79.80;;;;;;5077635;28;20045;-71
2022/03/10 08:06:39;;;;;;;10.73;4.18;;;9.40;79.70;;;;;;5053535;28;20406;-70
2022/03/10 08:09:07;;;;;;;8.75;3.65;;;9.40;79.80;;;;;;5069799;28;20067;-70
2022/03/10 08:11:34;;;;;;;6.63;3.97;;;9.40;79.70;;;;;;5053567;28;20053;-70
2022/03/10 08:14:04;;;;;;;8.57;3.80;;;9.50;79.70;;;;;;5057610;28;20044;-71
2022/03/10 08:16:33;;;;;;;11.25;3.88;;;9.50;79.70;;;;;;5056210;28;20379;-71
2022/03/10 08:19:01;;;;;;;9.02;4.07;;;9.60;79.60;;;;;;5062174;28;20051;-70
2022/03/10 08:21:28;;;;;;;7.95;4.22;;;9.60;79.60;;;;;;5055119;28;20529;-71
2022/03/10 08:23:56;;;;;;;10.27;4.18;;;9.70;79.50;;;;;;5070288;28;20044;-70
2022/03/10 08:26:24;;;;;;;7.22;3.65;;;9.70;79.50;;;;;;5070170;28;20056;-70
2022/03/10 08:28:53;;;;;;;10.27;4.00;;;9.70;79.40;;;;;;5061317;28;20049;-71
2022/03/10 08:31:21;;;;;;;8.32;3.20;;;9.80;79.30;;;;;;5066809;28;20033;-70
2022/03/10 08:33:49;;;;;;;10.20;3.90;;;9.80;79.10;;;;;;5067596;28;20056;-71
2022/03/10 08:36:16;;;;;;;7.18;3.50;;;9.80;79.10;;;;;;5054074;28;20048;-71
2022/03/10 08:38:44;;;;;;;12.38;4.18;;;9.90;79.00;;;;;;5055742;28;20056;-70
2022/03/10 08:41:12;;;;;;;10.98;3.40;;;9.90;79.00;;;;;;5050429;28;20375;-71
2022/03/10 08:43:39;;;;;;;9.75;3.25;;;10.00;78.90;;;;;;5060504;28;20045;-70
2022/03/10 08:46:07;;;;;;;7.13;3.10;;;10.00;78.90;;;;;;5040900;28;20056;-70
2022/03/10 08:48:35;;;;;;;11.68;3.65;;;10.10;78.60;;;;;;5062342;28;20049;-71
2022/03/10 08:51:04;;;;;;;8.55;3.40;;;10.20;78.50;;;;;;5060529;28;20056;-71
2022/03/10 08:53:32;;;;;;;8.25;3.15;;;10.20;78.40;;;;;;5053257;28;20068;-71
2022/03/10 08:56:00;;;;;;;7.85;2.78;;;10.20;78.20;;;;;;5069800;28;20055;-71
2022/03/10 08:58:27;;;;;;;6.22;2.80;;;10.30;78.10;;;;;;5061748;28;20044;-71
2022/03/10 09:00:55;;;;;;;8.82;3.15;;;10.30;78.10;;;;;;5054401;28;20049;-70
2022/03/10 09:03:43;;;;;;;10.70;3.47;;;10.40;77.90;;;;;;5057246;28;20459;-70
2022/03/10 09:06:12;;;;;;;7.28;2.70;;;10.50;77.60;;;;;;5070996;28;20044;-71
2022/03/10 09:08:42;;;;;;;5.97;2.67;;;10.60;77.40;;;;;;5070239;28;20093;-70
2022/03/10 09:11:10;;;;;;;7.43;2.63;;;10.60;77.20;;;;;;5059128;28;20049;-70
2022/03/10 09:13:37;;;;;;;3.78;2.40;;;10.70;77.00;;;;;;5051026;28;20076;-70
2022/03/10 09:16:05;;;;;;;8.73;2.60;;;10.70;76.70;;;;;;5051719;28;20049;-71
2022/03/10 09:18:34;;;;;;;8.70;2.67;;;10.80;76.30;;;;;;5039338;28;20053;-71
2022/03/10 09:21:02;;;;;;;6.38;2.60;;;10.80;76.10;;;;;;5052087;28;20049;-70
2022/03/10 09:23:30;;;;;;;7.82;2.78;;;10.80;75.70;;;;;;5053424;28;20049;-71
2022/03/10 09:25:58;;;;;;;10.50;2.80;;;10.90;75.70;;;;;;5057697;28;20041;-70
2022/03/10 09:28:25;;;;;;;8.00;2.35;;;11.00;75.70;;;;;;5075394;28;20413;-71
2022/03/10 09:30:53;;;;;;;5.50;2.33;;;11.10;75.00;;;;;;5073893;28;20048;-71
2022/03/10 09:33:21;;;;;;;8.40;2.45;;;11.20;74.80;;;;;;5062243;28;20048;-71
2022/03/10 09:35:48;;;;;;;8.63;2.60;;;11.30;74.80;;;;;;5054835;28;20056;-71
2022/03/10 09:38:19;;;;;;;10.25;2.42;;;11.30;74.60;;;;;;5060314;28;20045;-71
2022/03/10 09:40:47;;;;;;;7.40;2.65;;;11.30;74.40;;;;;;5055120;28;20053;-71
2022/03/10 09:43:15;;;;;;;10.02;2.80;;;11.30;74.10;;;;;;5055535;28;20410;-70
2022/03/10 09:45:44;;;;;;;7.85;2.90;;;11.40;74.10;;;;;;5061129;28;20409;-70
2022/03/10 09:48:12;;;;;;;7.25;2.92;;;11.30;73.60;;;;;;5070206;28;20535;-71
2022/03/10 09:50:39;;;;;;;9.55;2.10;;;11.40;73.60;;;;;;5065095;28;20041;-70
2022/03/10 09:53:07;;;;;;;9.80;2.83;;;11.50;73.20;;;;;;5039888;28;20055;-70
2022/03/10 09:55:38;;;;;;;7.55;2.40;;;11.50;73.10;;;;;;5055969;28;20524;-70
2022/03/10 09:58:07;;;;;;;6.03;2.15;;;11.50;72.50;;;;;;5072956;28;20052;-70
2022/03/10 10:00:35;;;;;;;6.22;2.15;;;11.50;72.60;;;;;;5070267;28;20040;-70
2022/03/10 10:03:03;;;;;;;4.60;1.52;;;11.60;72.30;;;;;;5072180;28;20060;-70
2022/03/10 10:05:32;;;;;;;10.25;1.85;;;11.60;71.40;;;;;;5056575;28;20521;-70
2022/03/10 10:08:17;;;;;;;11.00;1.80;;;11.60;71.10;;;;;;5066612;28;20060;-70
2022/03/10 10:10:47;;;;;;;12.82;2.00;;;11.80;70.80;;;;;;5054803;28;20044;-69
2022/03/10 10:13:31;;;;;;;9.75;2.17;;;11.80;70.80;;;;;;5070328;28;20409;-70
2022/03/10 10:16:01;;;;;;;4.95;1.67;;;11.80;71.20;;;;;;5056235;28;20413;-70
2022/03/10 10:18:30;;;;;;;7.50;1.65;;;11.90;71.00;;;;;;5066336;28;20063;-70
2022/03/10 10:21:20;;;;;;;6.80;1.67;;;12.00;70.50;;;;;;5041941;28;20079;-70
2022/03/10 10:23:51;;;;;;;7.78;2.00;;;12.10;69.70;;;;;;5061633;28;20049;-69
2022/03/10 10:26:25;;;;;;;4.28;1.70;;;12.10;69.20;;;;;;5072923;28;20052;-69
2022/03/10 10:28:54;;;;;;;8.82;1.90;;;12.10;69.60;;;;;;5064747;28;20041;-70
2022/03/10 10:31:24;;;;;;;7.97;1.35;;;12.00;69.80;;;;;;5053571;28;20064;-70
2022/03/10 10:34:10;;;;;;;5.15;1.25;;;11.90;69.00;;;;;;5059729;28;20051;-69
2022/03/10 10:36:41;;;;;;;5.40;1.30;;;11.80;68.50;;;;;;5066607;28;20045;-69
2022/03/10 10:39:16;;;;;;;2.85;1.30;;;11.80;68.30;;;;;;5063297;28;20045;-69
2022/03/10 10:41:45;;;;;;;1.83;1.00;;;11.70;68.60;;;;;;5061667;28;20045;-70
2022/03/10 10:44:19;;;;;;;5.80;1.30;;;11.70;67.90;;;;;;5053907;28;20056;-70
2022/03/10 10:46:49;;;;;;;8.82;1.45;;;11.60;68.20;;;;;;5053200;28;20053;-70
2022/03/10 10:49:22;;;;;;;5.57;1.23;;;11.60;67.80;;;;;;5054298;28;20049;-69
2022/03/10 10:51:50;;;;;;;5.25;1.40;;;11.60;68.10;;;;;;5054624;28;20045;-71
2022/03/10 10:54:23;;;;;;;5.80;1.20;;;11.60;68.50;;;;;;5053984;28;20040;-71
2022/03/10 10:56:52;;;;;;;8.73;1.85;;;11.70;68.40;;;;;;5057979;28;20044;-70
2022/03/10 10:59:29;;;;;;;10.40;1.40;;;11.80;67.90;;;;;;5074002;28;20398;-69
2022/03/10 11:02:11;;;;;;;6.22;1.35;;;11.80;68.00;;;;;;5073753;28;20055;-69
2022/03/10 11:04:40;;;;;;;9.52;1.55;;;11.80;68.10;;;;;;5074035;28;20040;-70
2022/03/10 11:07:09;;;;;;;5.20;0.82;;;11.90;67.80;;;;;;5073779;28;20047;-70
2022/03/10 11:09:39;;;;;;;4.60;0.98;;;12.00;67.30;;;;;;5073898;28;20045;-70
2022/03/10 11:12:09;;;;;;;5.50;1.10;;;12.10;67.10;;;;;;5073057;28;20520;-70
2022/03/10 11:14:37;;;;;;;8.68;1.10;;;12.20;67.00;;;;;;5073952;28;20371;-70
2022/03/10 11:17:06;;;;;;;7.35;1.15;;;12.30;66.80;;;;;;5056203;28;20398;-70
2022/03/10 11:19:38;;;;;;;4.10;1.02;;;12.40;66.10;;;;;;5073050;28;20044;-70
2022/03/10 11:22:31;;;;;;;2.67;1.10;;;12.30;65.60;;;;;;5048877;28;20056;-69
2022/03/10 11:25:26;;;;;;;4.87;1.00;;;12.40;65.20;;;;;;5055808;28;20044;-70
2022/03/10 11:27:55;;;;;;;4.20;1.02;;;12.40;65.30;;;;;;5073741;28;20282;-69
2022/03/10 11:30:27;;;;;;;6.38;1.23;;;12.50;64.60;;;;;;5055689;28;20056;-70
2022/03/10 11:33:04;;;;;;;7.03;1.50;;;12.60;64.80;;;;;;5073598;28;20051;-70
2022/03/10 11:35:43;;;;;;;1.70;0.45;;;12.70;64.20;;;;;;5055500;28;20510;-69
2022/03/10 11:38:13;;;;;;;5.85;1.15;;;12.80;63.50;;;;;;5072868;28;20052;-70
2022/03/10 11:40:57;;;;;;;5.78;0.95;;;12.80;64.20;;;;;;5055618;28;20041;-70
2022/03/10 11:43:33;;;;;;;6.20;1.05;;;13.10;63.60;;;;;;5073296;28;20051;-70
2022/03/10 11:46:21;;;;;;;9.77;1.10;;;13.30;63.30;;;;;;5071634;28;20049;-71
2022/03/10 11:49:02;;;;;;;7.80;1.30;;;13.80;62.20;;;;;;5072143;28;20056;-70
2022/03/10 11:51:56;;;;;;;8.05;1.23;;;13.90;61.10;;;;;;5055234;28;20044;-70
2022/03/10 11:54:26;;;;;;;4.78;0.82;;;13.90;61.50;;;;;;5066572;28;20045;-70
2022/03/10 11:57:07;;;;;;;7.32;1.33;;;14.00;61.10;;;;;;5072785;28;20048;-70
2022/03/10 11:59:35;;;;;;;11.18;1.42;;;13.90;60.40;;;;;;5073157;28;20488;-68
2022/03/10 12:02:03;;;;;;;3.47;0.95;;;13.60;60.50;;;;;;5071767;28;20505;-69
2022/03/10 12:04:36;;;;;;;8.20;1.23;;;13.50;61.10;;;;;;5072776;28;20045;-69
2022/03/10 12:07:06;;;;;;;6.00;1.58;;;13.40;61.10;;;;;;5072870;28;20044;-69
2022/03/10 12:09:36;;;;;;;4.68;1.10;;;13.40;60.90;;;;;;5072798;28;20044;-69
2022/03/10 12:12:19;;;;;;;5.72;0.90;;;13.30;61.60;;;;;;5071983;28;20056;-68
2022/03/10 12:15:29;;;;;;;5.80;0.83;;;13.40;61.50;;;;;;5071865;28;20056;-69
2022/03/10 12:17:58;;;;;;;5.25;0.73;;;13.50;60.70;;;;;;5072565;28;20301;-69
2022/03/10 12:20:38;;;;;;;4.53;0.73;;;13.80;60.50;;;;;;5072563;28;20043;-69
2022/03/10 12:23:15;;;;;;;4.43;0.70;;;14.40;59.00;;;;;;5071650;28;20122;-69
2022/03/10 12:25:53;;;;;;;4.15;0.90;;;15.10;56.00;;;;;;5072188;28;20159;-69
2022/03/10 12:28:34;;;;;;;3.40;0.82;;;15.40;54.20;;;;;;5054154;28;20418;-69
2022/03/10 12:31:14;;;;;;;7.00;0.63;;;16.00;54.00;;;;;;5072354;28;20067;-69
2022/03/10 12:33:47;;;;;;;3.83;0.50;;;16.60;51.80;;;;;;5071723;28;20402;-69
2022/03/10 12:36:25;;;;;;;7.50;0.50;;;17.00;48.50;;;;;;5071492;28;20052;-69
2022/03/10 12:38:53;;;;;;;3.10;0.70;;;17.30;46.90;;;;;;5072287;28;20048;-69
2022/03/10 12:41:27;;;;;;;4.80;0.73;;;17.10;46.90;;;;;;5072250;28;20044;-69
2022/03/10 12:44:02;;;;;;;2.47;0.60;;;16.90;48.00;;;;;;5053987;28;20055;-69
2022/03/10 12:46:31;;;;;;;9.32;1.00;;;16.80;48.90;;;;;;5054470;28;20037;-70
2022/03/10 12:49:11;;;;;;;5.18;0.60;;;17.00;50.00;;;;;;5070543;28;20123;-68
2022/03/10 12:51:39;;;;;;;1.30;0.50;;;17.10;48.70;;;;;;5055064;28;20044;-69
2022/03/10 12:54:08;;;;;;;13.18;0.85;;;17.30;46.80;;;;;;5071451;28;20048;-70
2022/03/10 12:56:50;;;;;;;3.28;1.05;;;17.30;46.10;;;;;;5054281;28;20489;-70
2022/03/10 12:59:26;;;;;;;6.38;0.60;;;17.20;46.70;;;;;;5053188;28;20048;-70
2022/03/10 13:01:54;;;;;;;1.13;0.30;;;17.30;48.00;;;;;;5072157;28;20485;-69
2022/03/10 13:04:22;;;;;;;2.58;0.50;;;17.80;46.30;;;;;;5053884;28;20390;-70
2022/03/10 13:06:58;;;;;;;2.72;0.40;;;18.10;44.90;;;;;;5072149;28;20048;-70
2022/03/10 13:09:25;;;;;;;1.85;0.45;;;18.30;43.10;;;;;;5071596;28;20048;-69